createdAt,value
2018-07-24T00:02:05.674Z,20.00
2018-07-24T00:04:34.314Z,19.90
2018-07-24T00:07:02.817Z,19.90
2018-07-24T00:09:31.296Z,19.90
2018-07-24T00:12:00.084Z,19.80
2018-07-24T00:14:28.635Z,19.60
2018-07-24T00:16:57.354Z,19.50
2018-07-24T00:19:26.199Z,19.20
2018-07-24T00:21:55.016Z,19.10
2018-07-24T00:24:23.505Z,19.30
2018-07-24T00:26:52.202Z,19.60
2018-07-24T00:29:21.050Z,19.60
2018-07-24T00:31:50.076Z,19.80
2018-07-24T00:34:18.554Z,19.80
2018-07-24T00:36:47.378Z,19.70
2018-07-24T00:39:16.099Z,19.80
2018-07-24T00:41:44.575Z,19.60
2018-07-24T00:44:13.358Z,19.30
2018-07-24T00:46:42.070Z,19.10
2018-07-24T00:49:10.570Z,19.10
2018-07-24T00:51:39.334Z,19.10
2018-07-24T00:54:08.045Z,19.00
2018-07-24T00:56:36.544Z,19.10
2018-07-24T00:59:05.079Z,19.10
2018-07-24T01:01:33.595Z,19.10
2018-07-24T01:04:02.109Z,19.00
2018-07-24T01:06:30.611Z,19.00
2018-07-24T01:08:59.307Z,19.00
2018-07-24T01:11:27.808Z,18.90
2018-07-24T01:13:56.638Z,18.90
2018-07-24T01:16:25.147Z,18.60
2018-07-24T01:18:53.947Z,18.60
2018-07-24T01:21:22.435Z,18.60
2018-07-24T01:23:50.866Z,18.80
2018-07-24T01:26:19.348Z,19.10
2018-07-24T01:28:48.350Z,19.20
2018-07-24T01:31:16.838Z,19.20
2018-07-24T01:33:45.347Z,19.00
2018-07-24T01:36:13.881Z,19.00
2018-07-24T01:38:42.383Z,18.90
2018-07-24T01:41:10.881Z,18.80
2018-07-24T01:43:39.447Z,18.90
2018-07-24T01:46:07.898Z,19.20
2018-07-24T01:48:36.388Z,19.00
2018-07-24T01:51:04.879Z,18.90
2018-07-24T01:53:33.617Z,18.70
2018-07-24T01:56:02.157Z,18.70
2018-07-24T01:58:30.875Z,18.70
2018-07-24T02:01:02.617Z,18.70
2018-07-24T02:03:31.755Z,18.70
2018-07-24T02:06:00.250Z,18.60
2018-07-24T02:08:29.090Z,18.40
2018-07-24T02:10:57.872Z,18.40
2018-07-24T02:13:26.364Z,18.40
2018-07-24T02:15:55.174Z,18.40
2018-07-24T02:18:23.968Z,18.50
2018-07-24T02:20:52.454Z,18.40
2018-07-24T02:23:20.899Z,18.50
2018-07-24T02:25:49.680Z,18.80
2018-07-24T02:28:18.164Z,18.80
2018-07-24T02:30:46.743Z,18.50
2018-07-24T02:33:15.486Z,18.40
2018-07-24T02:35:43.962Z,18.40
2018-07-24T02:38:12.456Z,18.20
2018-07-24T02:40:40.911Z,18.10
2018-07-24T02:43:09.429Z,18.10
2018-07-24T02:45:37.894Z,17.90
2018-07-24T02:48:06.402Z,17.70
2018-07-24T02:50:35.551Z,17.70
2018-07-24T02:53:04.059Z,17.80
2018-07-24T02:55:32.799Z,17.90
2018-07-24T02:58:01.306Z,18.10
2018-07-24T03:00:29.759Z,17.90
2018-07-24T03:02:58.255Z,17.80
2018-07-24T03:05:26.694Z,17.70
2018-07-24T03:07:55.180Z,17.80
2018-07-24T03:10:24.631Z,17.70
2018-07-24T03:12:53.163Z,17.50
2018-07-24T03:15:21.664Z,17.60
2018-07-24T03:17:50.107Z,17.60
2018-07-24T03:20:18.875Z,17.50
2018-07-24T03:22:47.317Z,17.50
2018-07-24T03:25:15.844Z,17.50
2018-07-24T03:27:44.614Z,17.60
2018-07-24T03:30:13.102Z,17.70
2018-07-24T03:32:41.566Z,17.60
2018-07-24T03:35:10.092Z,17.90
2018-07-24T03:37:38.577Z,18.00
2018-07-24T03:40:07.035Z,18.00
2018-07-24T03:42:35.815Z,18.00
2018-07-24T03:45:04.928Z,18.00
2018-07-24T03:47:33.995Z,17.80
2018-07-24T03:50:02.478Z,17.70
2018-07-24T03:52:30.924Z,17.60
2018-07-24T03:54:59.635Z,17.80
2018-07-24T03:57:29.170Z,17.90
2018-07-24T03:59:57.642Z,17.80
2018-07-24T04:02:26.119Z,17.70
2018-07-24T04:04:54.879Z,17.60
2018-07-24T04:07:23.378Z,17.50
2018-07-24T04:09:52.187Z,17.20
2018-07-24T04:12:20.632Z,17.20
2018-07-24T04:14:49.478Z,17.10
2018-07-24T04:17:18.013Z,17.40
2018-07-24T04:19:46.517Z,17.50
2018-07-24T04:22:14.986Z,17.70
2018-07-24T04:24:43.503Z,17.70
2018-07-24T04:27:11.934Z,17.70
2018-07-24T04:29:40.415Z,17.70
2018-07-24T04:32:08.991Z,17.60
2018-07-24T04:34:37.718Z,17.70
2018-07-24T04:37:06.400Z,17.70
2018-07-24T04:39:34.923Z,17.70
2018-07-24T04:42:03.361Z,17.80
2018-07-24T04:44:32.088Z,17.80
2018-07-24T04:47:00.578Z,17.70
2018-07-24T04:49:29.051Z,17.60
2018-07-24T04:51:57.544Z,17.80
2018-07-24T04:54:25.993Z,18.00
2018-07-24T04:56:54.478Z,18.10
2018-07-24T04:59:22.924Z,18.10
2018-07-24T05:01:51.418Z,18.30
2018-07-24T05:04:20.169Z,18.40
2018-07-24T05:06:48.667Z,18.40
2018-07-24T05:09:17.142Z,18.50
2018-07-24T05:11:45.947Z,18.60
2018-07-24T05:14:15.123Z,18.60
2018-07-24T05:16:43.837Z,18.60
2018-07-24T05:19:12.288Z,18.60
2018-07-24T05:21:41.067Z,18.70
2018-07-24T05:24:09.581Z,18.70
2018-07-24T05:26:38.071Z,18.70
2018-07-24T05:29:06.858Z,18.80
2018-07-24T05:31:35.332Z,18.80
2018-07-24T05:34:03.852Z,18.80
2018-07-24T05:36:32.359Z,18.90
2018-07-24T05:39:00.891Z,18.70
2018-07-24T05:41:29.355Z,18.50
2018-07-24T05:43:58.090Z,18.50
2018-07-24T05:46:26.523Z,18.60
2018-07-24T05:48:55.041Z,18.60
2018-07-24T05:51:23.483Z,18.80
2018-07-24T05:53:51.972Z,18.80
2018-07-24T05:56:20.418Z,19.00
2018-07-24T05:58:49.182Z,19.00
2018-07-24T06:01:17.704Z,19.20
2018-07-24T06:03:46.755Z,19.30
2018-07-24T06:06:15.259Z,19.60
2018-07-24T06:08:43.738Z,19.70
2018-07-24T06:11:12.553Z,19.90
2018-07-24T06:13:41.386Z,20.20
2018-07-24T06:16:09.831Z,20.40
2018-07-24T06:18:38.408Z,20.60
2018-07-24T06:21:07.198Z,20.70
2018-07-24T06:23:35.695Z,20.70
2018-07-24T06:26:04.167Z,20.90
2018-07-24T06:28:32.890Z,20.90
2018-07-24T06:31:02.044Z,21.10
2018-07-24T06:33:30.715Z,21.40
2018-07-24T06:35:59.199Z,21.60
2018-07-24T06:38:28.412Z,21.70
2018-07-24T06:40:57.023Z,21.80
2018-07-24T06:43:25.992Z,22.00
2018-07-24T06:45:54.464Z,22.20
2018-07-24T06:48:22.952Z,22.30
2018-07-24T06:50:51.455Z,22.50
2018-07-24T06:53:19.920Z,22.70
2018-07-24T06:55:48.409Z,22.90
2018-07-24T06:58:17.217Z,23.00
2018-07-24T07:00:45.705Z,23.20
2018-07-24T07:03:14.230Z,23.40
2018-07-24T07:05:42.695Z,23.60
2018-07-24T07:08:11.175Z,23.70
2018-07-24T07:10:39.950Z,23.80
2018-07-24T07:13:08.766Z,23.90
2018-07-24T07:15:37.268Z,24.10
2018-07-24T07:18:06.105Z,24.40
2018-07-24T07:20:34.885Z,24.60
2018-07-24T07:23:03.678Z,24.60
2018-07-24T07:25:32.418Z,24.70
2018-07-24T07:28:00.947Z,24.60
2018-07-24T07:30:29.659Z,24.80
2018-07-24T07:32:58.125Z,24.90
2018-07-24T07:35:26.630Z,25.30
2018-07-24T07:37:55.385Z,25.60
2018-07-24T07:40:23.866Z,25.80
2018-07-24T07:42:52.936Z,25.80
2018-07-24T07:45:21.736Z,25.80
2018-07-24T07:47:50.171Z,25.90
2018-07-24T07:50:18.903Z,26.10
2018-07-24T07:52:47.628Z,26.30
2018-07-24T07:55:16.255Z,26.20
2018-07-24T07:57:45.052Z,26.50
2018-07-24T08:00:13.577Z,26.50
2018-07-24T08:02:42.004Z,26.70
2018-07-24T08:05:10.765Z,26.90
2018-07-24T08:07:39.250Z,27.00
2018-07-24T08:10:07.918Z,27.30
2018-07-24T08:12:36.619Z,27.50
2018-07-24T08:15:05.442Z,27.70
2018-07-24T08:17:34.410Z,27.90
2018-07-24T08:20:02.889Z,28.00
2018-07-24T08:22:31.410Z,27.40
2018-07-24T08:24:59.872Z,27.70
2018-07-24T08:27:28.373Z,27.90
2018-07-24T08:29:56.831Z,27.90
2018-07-24T08:32:25.340Z,28.20
2018-07-24T08:34:53.814Z,28.30
2018-07-24T08:39:50.826Z,28.60
2018-07-24T08:42:19.303Z,29.00
2018-07-24T08:44:48.134Z,29.10
2018-07-24T08:47:16.941Z,28.30
2018-07-24T08:49:45.387Z,28.70
2018-07-24T08:52:13.918Z,29.10
2018-07-24T08:54:42.704Z,29.40
2018-07-24T08:57:10.870Z,29.70
2018-07-24T08:59:39.350Z,29.50
2018-07-24T09:02:08.040Z,29.40
2018-07-24T09:04:36.536Z,29.60
2018-07-24T09:07:05.362Z,29.70
2018-07-24T09:09:33.870Z,30.00
2018-07-24T09:12:02.362Z,30.30
2018-07-24T09:14:30.832Z,30.40
2018-07-24T09:16:59.337Z,30.50
2018-07-24T09:19:27.862Z,30.30
2018-07-24T09:24:24.482Z,30.70
2018-07-24T09:26:53.011Z,30.70
2018-07-24T09:29:21.519Z,30.80
2018-07-24T09:31:50.055Z,30.90
2018-07-24T09:36:46.714Z,30.90
2018-07-24T09:39:15.450Z,30.90
2018-07-24T09:41:44.499Z,31.10
2018-07-24T09:44:13.013Z,31.30
2018-07-24T09:46:41.454Z,31.10
2018-07-24T09:49:09.955Z,31.30
2018-07-24T09:51:38.467Z,31.50
2018-07-24T09:54:06.962Z,31.60
2018-07-24T09:56:35.470Z,31.70
2018-07-24T09:59:04.012Z,31.70
2018-07-24T10:04:03.870Z,32.00
2018-07-24T10:06:33.510Z,32.20
2018-07-24T10:09:02.032Z,32.30
2018-07-24T10:11:30.515Z,32.10
2018-07-24T10:13:59.011Z,32.30
2018-07-24T10:16:27.860Z,32.40
2018-07-24T10:18:56.366Z,32.40
2018-07-24T10:21:25.672Z,32.50
2018-07-24T10:23:54.470Z,32.70
2018-07-24T10:26:23.363Z,32.80
2018-07-24T10:28:52.168Z,33.00
2018-07-24T10:31:20.679Z,33.00
2018-07-24T10:33:49.520Z,32.60
2018-07-24T10:36:18.015Z,32.20
2018-07-24T10:38:46.502Z,32.10
2018-07-24T10:41:15.384Z,32.40
2018-07-24T10:43:44.076Z,32.70
2018-07-24T10:46:12.532Z,32.70
2018-07-24T10:48:41.064Z,32.90
2018-07-24T10:51:09.695Z,32.90
2018-07-24T10:53:38.422Z,32.90
2018-07-24T10:56:06.995Z,33.10
2018-07-24T10:58:35.479Z,32.50
2018-07-24T11:01:03.963Z,32.40
2018-07-24T11:03:32.475Z,32.70
2018-07-24T11:06:00.911Z,33.10
2018-07-24T11:08:29.402Z,33.30
2018-07-24T11:10:57.959Z,33.40
2018-07-24T11:13:26.866Z,33.40
2018-07-24T11:15:55.402Z,33.50
2018-07-24T11:18:23.891Z,33.60
2018-07-24T11:20:52.714Z,33.80
2018-07-24T11:23:21.233Z,33.70
2018-07-24T11:25:50.012Z,33.60
2018-07-24T11:28:18.523Z,33.50
2018-07-24T11:30:47.292Z,33.70
2018-07-24T11:33:16.128Z,33.70
2018-07-24T11:35:44.877Z,34.00
2018-07-24T11:38:13.680Z,34.10
2018-07-24T11:40:42.446Z,34.10
2018-07-24T11:43:11.211Z,34.10
2018-07-24T11:45:39.695Z,34.00
2018-07-24T11:48:08.134Z,33.80
2018-07-24T11:50:36.602Z,33.90
2018-07-24T11:53:05.102Z,34.20
2018-07-24T11:55:33.926Z,34.20
2018-07-24T11:58:02.476Z,34.00
2018-07-24T12:00:31.208Z,33.90
2018-07-24T12:02:59.663Z,33.50
2018-07-24T12:05:28.459Z,33.70
2018-07-24T12:07:57.201Z,34.10
2018-07-24T12:10:25.711Z,33.50
2018-07-24T12:12:54.155Z,33.20
2018-07-24T12:15:22.679Z,33.70
2018-07-24T12:17:51.154Z,34.00
2018-07-24T12:20:19.811Z,34.30
2018-07-24T12:22:48.319Z,34.20
2018-07-24T12:25:16.799Z,34.40
2018-07-24T12:27:45.264Z,34.40
2018-07-24T12:30:13.753Z,34.50
2018-07-24T12:32:42.218Z,34.20
2018-07-24T12:35:11.003Z,34.40
2018-07-24T12:37:39.809Z,34.50
2018-07-24T12:40:08.315Z,34.80
2018-07-24T12:42:36.801Z,34.40
2018-07-24T12:47:33.817Z,34.60
2018-07-24T12:50:02.539Z,34.80
2018-07-24T12:52:31.051Z,34.80
2018-07-24T12:54:59.503Z,34.80
2018-07-24T12:59:56.415Z,35.40
2018-07-24T13:02:25.136Z,34.70
2018-07-24T13:04:53.923Z,34.90
2018-07-24T13:07:22.742Z,35.30
2018-07-24T13:09:51.193Z,35.40
2018-07-24T13:12:19.713Z,35.50
2018-07-24T13:14:48.432Z,35.50
2018-07-24T13:17:16.922Z,35.40
2018-07-24T13:19:45.710Z,35.50
2018-07-24T13:22:14.491Z,35.50
2018-07-24T13:24:43.114Z,35.70
2018-07-24T13:27:11.782Z,35.30
2018-07-24T13:29:40.275Z,35.20
2018-07-24T13:32:08.748Z,35.00
2018-07-24T13:34:37.234Z,34.80
2018-07-24T13:37:05.829Z,34.30
2018-07-24T13:39:34.298Z,34.30
2018-07-24T13:42:03.382Z,34.70
2018-07-24T13:44:32.503Z,34.50
2018-07-24T13:47:01.319Z,34.60
2018-07-24T13:49:29.792Z,34.80
2018-07-24T13:51:58.298Z,34.90
2018-07-24T13:54:26.762Z,34.80
2018-07-24T13:56:55.535Z,35.00
2018-07-24T13:59:24.091Z,35.30
2018-07-24T14:01:52.626Z,35.20
2018-07-24T14:04:21.130Z,34.80
2018-07-24T14:06:49.929Z,35.00
2018-07-24T14:09:18.956Z,35.20
2018-07-24T14:11:47.442Z,35.60
2018-07-24T14:14:16.245Z,35.80
2018-07-24T14:16:44.666Z,35.80
2018-07-24T14:19:13.195Z,35.50
2018-07-24T14:21:41.665Z,35.40
2018-07-24T14:24:10.420Z,35.60
2018-07-24T14:26:39.136Z,35.40
2018-07-24T14:29:07.818Z,35.30
2018-07-24T14:31:36.333Z,35.00
2018-07-24T14:34:04.779Z,35.50
2018-07-24T14:36:33.602Z,35.60
2018-07-24T14:39:02.293Z,35.50
2018-07-24T14:41:30.792Z,35.70
2018-07-24T14:43:59.261Z,35.90
2018-07-24T14:46:27.769Z,36.00
2018-07-24T14:48:56.545Z,35.80
2018-07-24T14:51:25.051Z,35.70
2018-07-24T14:53:53.798Z,36.00
2018-07-24T14:56:22.609Z,36.00
2018-07-24T14:58:51.100Z,35.80
2018-07-24T15:01:19.547Z,35.90
2018-07-24T15:03:48.031Z,36.20
2018-07-24T15:06:16.494Z,36.50
2018-07-24T15:08:45.303Z,36.10
2018-07-24T15:11:13.791Z,36.20
2018-07-24T15:13:42.614Z,36.30
2018-07-24T15:16:11.050Z,36.40
2018-07-24T15:18:39.575Z,36.30
2018-07-24T15:21:08.082Z,36.50
2018-07-24T15:23:37.359Z,36.40
2018-07-24T15:26:05.902Z,36.00
2018-07-24T15:28:34.401Z,35.90
2018-07-24T15:31:02.872Z,35.80
2018-07-24T15:33:31.364Z,35.10
2018-07-24T15:35:59.821Z,35.30
2018-07-24T15:38:28.579Z,35.80
2018-07-24T15:40:57.190Z,36.10
2018-07-24T15:43:27.744Z,35.90
2018-07-24T15:45:56.230Z,36.00
2018-07-24T15:48:25.015Z,36.20
2018-07-24T15:50:53.517Z,36.20
2018-07-24T15:53:22.292Z,35.90
2018-07-24T15:55:50.793Z,35.50
2018-07-24T15:58:19.261Z,35.40
2018-07-24T16:00:47.763Z,35.70
2018-07-24T16:03:16.206Z,36.10
2018-07-24T16:05:44.766Z,36.50
2018-07-24T16:08:13.214Z,36.30
2018-07-24T16:10:41.699Z,35.90
2018-07-24T16:13:10.138Z,35.40
2018-07-24T16:15:38.832Z,35.40
2018-07-24T16:18:07.278Z,35.30
2018-07-24T16:20:35.793Z,34.70
2018-07-24T16:23:04.923Z,34.40
2018-07-24T16:25:33.374Z,34.40
2018-07-24T16:28:02.215Z,34.20
2018-07-24T16:30:31.023Z,34.00
2018-07-24T16:32:59.974Z,33.50
2018-07-24T16:35:28.433Z,33.40
2018-07-24T16:37:56.918Z,33.80
2018-07-24T16:40:25.635Z,33.50
2018-07-24T16:42:54.095Z,33.60
2018-07-24T16:45:22.659Z,33.60
2018-07-24T16:47:51.129Z,33.60
2018-07-24T16:50:19.615Z,33.70
2018-07-24T16:52:48.104Z,33.70
2018-07-24T16:55:16.567Z,33.60
2018-07-24T16:57:45.359Z,33.30
2018-07-24T17:00:13.856Z,33.30
2018-07-24T17:02:42.689Z,33.00
2018-07-24T17:05:11.164Z,32.90
2018-07-24T17:07:40.123Z,33.20
2018-07-24T17:10:08.695Z,33.40
2018-07-24T17:12:37.278Z,33.10
2018-07-24T17:15:06.691Z,33.30
2018-07-24T17:17:35.159Z,33.30
2018-07-24T17:20:03.760Z,33.00
2018-07-24T17:22:32.317Z,32.80
2018-07-24T17:25:01.113Z,32.90
2018-07-24T17:27:30.302Z,32.90
2018-07-24T17:32:26.902Z,33.10
2018-07-24T17:34:55.387Z,33.00
2018-07-24T17:37:23.898Z,32.80
2018-07-24T17:39:52.351Z,32.70
2018-07-24T17:42:21.135Z,32.70
2018-07-24T17:44:49.594Z,32.60
2018-07-24T17:47:18.047Z,32.50
2018-07-24T17:49:46.487Z,32.50
2018-07-24T17:52:15.308Z,32.30
2018-07-24T17:54:43.980Z,32.30
2018-07-24T17:57:12.493Z,32.30
2018-07-24T17:59:40.925Z,32.20
2018-07-24T18:02:09.405Z,32.00
2018-07-24T18:04:38.179Z,32.00
2018-07-24T18:07:06.675Z,31.90
2018-07-24T18:09:35.107Z,31.60
2018-07-24T18:12:03.647Z,31.60
2018-07-24T18:14:32.627Z,31.60
2018-07-24T18:17:01.105Z,31.60
2018-07-24T18:19:29.585Z,31.40
2018-07-24T18:21:58.090Z,31.50
2018-07-24T18:24:26.530Z,31.50
2018-07-24T18:26:55.327Z,31.50
2018-07-24T18:29:24.092Z,31.40
2018-07-24T18:31:52.558Z,31.10
2018-07-24T18:34:21.310Z,30.90
2018-07-24T18:36:49.789Z,30.70
2018-07-24T18:39:18.251Z,30.50
2018-07-24T18:41:46.698Z,30.30
2018-07-24T18:44:15.195Z,30.20
2018-07-24T18:46:43.654Z,30.00
2018-07-24T18:49:12.406Z,29.80
2018-07-24T18:51:41.128Z,29.60
2018-07-24T18:54:09.640Z,29.50
2018-07-24T18:56:38.151Z,29.30
2018-07-24T18:59:06.983Z,29.10
2018-07-24T19:01:35.586Z,28.90
2018-07-24T19:04:04.355Z,28.80
2018-07-24T19:06:32.806Z,28.70
2018-07-24T19:09:01.683Z,28.50
2018-07-24T19:11:30.202Z,28.40
2018-07-24T19:13:58.699Z,28.40
2018-07-24T19:16:27.344Z,28.40
2018-07-24T19:18:56.555Z,28.90
2018-07-24T19:21:25.138Z,28.80
2018-07-24T19:23:53.611Z,28.70
2018-07-24T19:26:22.068Z,28.60
2018-07-24T19:28:50.842Z,28.40
2018-07-24T19:31:19.381Z,27.90
2018-07-24T19:33:47.816Z,27.50
2018-07-24T19:36:16.818Z,27.20
2018-07-24T19:38:46.691Z,27.10
2018-07-24T19:41:15.302Z,26.90
2018-07-24T19:43:43.882Z,26.70
2018-07-24T19:46:12.303Z,26.60
2018-07-24T19:48:40.768Z,26.60
2018-07-24T19:51:09.331Z,26.50
2018-07-24T19:53:38.114Z,26.20
2018-07-24T19:56:06.574Z,26.10
2018-07-24T19:58:35.047Z,26.10
2018-07-24T20:01:03.617Z,26.10
2018-07-24T20:03:32.111Z,26.20
2018-07-24T20:06:00.700Z,26.20
2018-07-24T20:08:29.207Z,26.30
2018-07-24T20:10:57.665Z,26.30
2018-07-24T20:13:26.167Z,26.00
2018-07-24T20:15:54.876Z,25.90
2018-07-24T20:18:23.518Z,25.80
2018-07-24T20:20:52.850Z,25.80
2018-07-24T20:23:21.416Z,25.70
2018-07-24T20:25:50.074Z,25.70
2018-07-24T20:28:18.859Z,26.10
2018-07-24T20:30:47.424Z,25.90
2018-07-24T20:33:15.882Z,25.60
2018-07-24T20:35:44.603Z,25.40
2018-07-24T20:38:13.146Z,25.30
2018-07-24T20:43:10.406Z,25.50
2018-07-24T20:45:38.912Z,25.10
2018-07-24T20:48:07.691Z,25.00
2018-07-24T20:50:36.151Z,24.80
2018-07-24T20:53:04.941Z,24.70
2018-07-24T20:58:01.834Z,24.20
2018-07-24T21:00:30.357Z,24.20
2018-07-24T21:02:58.842Z,24.20
2018-07-24T21:05:27.303Z,24.20
2018-07-24T21:07:55.767Z,24.10
2018-07-24T21:10:24.600Z,24.00
2018-07-24T21:12:53.562Z,23.90
2018-07-24T21:15:22.022Z,24.00
2018-07-24T21:17:51.068Z,24.20
2018-07-24T21:20:19.551Z,24.20
2018-07-24T21:22:48.024Z,24.60
2018-07-24T21:25:16.732Z,24.80
2018-07-24T21:27:45.522Z,24.70
2018-07-24T21:30:13.999Z,24.30
2018-07-24T21:32:42.667Z,24.20
2018-07-24T21:35:11.181Z,24.10
2018-07-24T21:37:39.933Z,24.20
2018-07-24T21:40:09.035Z,24.20
2018-07-24T21:42:37.540Z,24.10
2018-07-24T21:45:05.985Z,23.80
2018-07-24T21:47:34.779Z,23.70
2018-07-24T21:50:03.342Z,23.60
2018-07-24T21:52:31.784Z,23.50
2018-07-24T21:55:00.523Z,23.60
2018-07-24T21:57:29.022Z,23.60
2018-07-24T21:59:57.533Z,23.40
2018-07-24T22:02:25.984Z,23.50
2018-07-24T22:04:54.719Z,23.40
2018-07-24T22:07:23.163Z,23.30
2018-07-24T22:09:51.962Z,23.20
2018-07-24T22:14:48.904Z,22.90
2018-07-24T22:17:17.366Z,22.90
2018-07-24T22:19:46.130Z,22.80
2018-07-24T22:22:14.912Z,22.70
2018-07-24T22:24:43.374Z,22.70
2018-07-24T22:27:11.815Z,22.60
2018-07-24T22:29:40.294Z,22.40
2018-07-24T22:32:08.772Z,22.40
2018-07-24T22:34:37.276Z,22.70
2018-07-24T22:37:06.089Z,22.70
2018-07-24T22:39:34.560Z,22.70
2018-07-24T22:42:03.545Z,22.60
2018-07-24T22:44:32.343Z,22.60
2018-07-24T22:47:00.778Z,22.50
2018-07-24T22:49:29.506Z,22.50
2018-07-24T22:51:58.095Z,22.40
2018-07-24T22:54:26.603Z,22.30
2018-07-24T22:56:55.059Z,22.50
2018-07-24T22:59:23.526Z,22.70
2018-07-24T23:01:51.975Z,22.50
2018-07-24T23:04:20.447Z,22.30
2018-07-24T23:06:48.889Z,22.20
2018-07-24T23:09:17.842Z,22.20
2018-07-24T23:11:46.283Z,22.30
2018-07-24T23:14:15.315Z,22.30
2018-07-24T23:16:44.034Z,22.50
2018-07-24T23:19:12.507Z,22.40
2018-07-24T23:21:40.963Z,22.30
2018-07-24T23:24:09.702Z,22.20
2018-07-24T23:26:38.158Z,22.00
2018-07-24T23:29:06.636Z,21.90
2018-07-24T23:31:35.144Z,21.90
2018-07-24T23:34:03.641Z,21.90
2018-07-24T23:36:32.949Z,22.10
2018-07-24T23:39:01.803Z,22.30
2018-07-24T23:41:30.262Z,22.30
2018-07-24T23:43:58.702Z,22.40
2018-07-24T23:46:27.182Z,22.20
2018-07-24T23:48:55.628Z,22.10
2018-07-24T23:51:24.099Z,22.00
2018-07-24T23:53:53.062Z,22.00
2018-07-24T23:56:21.584Z,21.90
2018-07-24T23:58:50.314Z,21.70
